Time,TemperatureF,DewpointF,PressureIn,WindDirection,WindDirectionDegrees,WindSpeedMPH,WindSpeedGustMPH,Humidity,HourlyPrecipIn,Conditions,Clouds,dailyrainin,SoftwareType,DateUTC
2013-02-05 00:01:00,19.0,13.0,30.01,WSW,255,0.0,3.0,76,0.00,,,0.00,weatherlink.com 1.10,2013-02-05 05:01:00,
2013-02-05 00:16:00,19.0,13.0,30.01,WSW,239,0.0,1.0,76,0.00,,,0.00,weatherlink.com 1.10,2013-02-05 05:16:00,
2013-02-05 00:31:00,18.9,13.0,30.00,WSW,239,0.0,1.0,77,0.00,,,0.00,weatherlink.com 1.10,2013-02-05 05:31:00,
2013-02-05 00:46:00,18.9,13.0,30.00,West,273,0.0,0.0,78,0.00,,,0.00,weatherlink.com 1.10,2013-02-05 05:46:00,
2013-02-05 01:01:00,18.9,13.0,30.00,West,275,0.0,2.0,78,0.00,,,0.00,weatherlink.com 1.10,2013-02-05 06:01:00,
2013-02-05 01:16:00,18.8,13.0,30.00,West,262,0.0,0.0,78,0.00,,,0.00,weatherlink.com 1.10,2013-02-05 06:16:00,
2013-02-05 01:31:00,18.8,13.0,29.99,West,263,0.0,0.0,79,0.00,,,0.00,weatherlink.com 1.10,2013-02-05 06:31:00,
2013-02-05 01:46:00,18.8,14.0,29.99,West,281,0.0,0.0,80,0.00,,,0.00,weatherlink.com 1.10,2013-02-05 06:46:00,
2013-02-05 02:01:00,18.8,14.0,30.00,West,273,0.0,0.0,81,0.00,,,0.00,weatherlink.com 1.10,2013-02-05 07:01:00,
2013-02-05 02:16:00,18.8,14.0,30.00,West,274,1.0,1.0,81,0.00,,,0.00,weatherlink.com 1.10,2013-02-05 07:16:00,
2013-02-05 02:31:00,18.7,14.0,30.00,WSW,246,0.0,1.0,81,0.00,,,0.00,weatherlink.com 1.10,2013-02-05 07:31:00,
2013-02-05 02:46:00,18.7,14.0,30.00,WSW,256,0.0,0.0,81,0.00,,,0.00,weatherlink.com 1.10,2013-02-05 07:46:00,
2013-02-05 03:01:00,18.7,14.0,29.99,WSW,256,0.0,0.0,82,0.00,,,0.00,weatherlink.com 1.10,2013-02-05 08:01:00,
2013-02-05 03:16:00,18.6,14.0,29.99,WSW,256,0.0,0.0,81,0.00,,,0.00,weatherlink.com 1.10,2013-02-05 08:16:00,
2013-02-05 03:31:00,18.0,13.0,30.00,NE,55,0.0,0.0,81,0.00,,,0.00,weatherlink.com 1.10,2013-02-05 08:31:00,
2013-02-05 03:46:00,17.6,13.0,30.00,ENE,67,0.0,0.0,82,0.00,,,0.00,weatherlink.com 1.10,2013-02-05 08:46:00,
2013-02-05 04:01:00,17.2,13.0,29.99,ESE,117,0.0,2.0,83,0.00,,,0.00,weatherlink.com 1.10,2013-02-05 09:01:00,
2013-02-05 04:16:00,16.9,13.0,29.99,ESE,123,0.0,0.0,84,0.00,,,0.00,weatherlink.com 1.10,2013-02-05 09:16:00,
2013-02-05 04:31:00,16.6,13.0,30.00,East,80,0.0,1.0,85,0.00,,,0.00,weatherlink.com 1.10,2013-02-05 09:31:00,
2013-02-05 04:46:00,16.5,13.0,30.00,NE,49,0.0,0.0,85,0.00,,,0.00,weatherlink.com 1.10,2013-02-05 09:46:00,
2013-02-05 05:01:00,16.3,13.0,30.00,NNE,30,0.0,0.0,86,0.00,,,0.00,weatherlink.com 1.10,2013-02-05 10:01:00,
2013-02-05 05:16:00,16.2,13.0,30.00,ESE,118,0.0,0.0,86,0.00,,,0.00,weatherlink.com 1.10,2013-02-05 10:16:00,
2013-02-05 05:31:00,16.2,13.0,30.02,NNE,30,0.0,0.0,87,0.00,,,0.00,weatherlink.com 1.10,2013-02-05 10:31:00,
2013-02-05 05:46:00,16.3,13.0,30.01,NNE,30,0.0,0.0,87,0.00,,,0.00,weatherlink.com 1.10,2013-02-05 10:46:00,
2013-02-05 06:01:00,16.3,13.0,30.01,NE,34,0.0,0.0,87,0.00,,,0.00,weatherlink.com 1.10,2013-02-05 11:01:00,
2013-02-05 06:16:00,16.2,13.0,30.02,ESE,117,0.0,0.0,88,0.00,,,0.00,weatherlink.com 1.10,2013-02-05 11:16:00,
2013-02-05 06:31:00,16.1,13.0,30.02,ESE,118,0.0,0.0,88,0.00,,,0.00,weatherlink.com 1.10,2013-02-05 11:31:00,
2013-02-05 06:46:00,15.9,13.0,30.03,ESE,110,0.0,0.0,88,0.00,,,0.00,weatherlink.com 1.10,2013-02-05 11:46:00,
2013-02-05 07:01:00,15.9,13.0,30.03,ESE,110,0.0,0.0,88,0.00,,,0.00,weatherlink.com 1.10,2013-02-05 12:01:00,
2013-02-05 07:16:00,15.9,13.0,30.03,ESE,110,0.0,0.0,88,0.00,,,0.00,weatherlink.com 1.10,2013-02-05 12:16:00,
2013-02-05 07:31:00,15.9,13.0,30.04,ESE,110,0.0,0.0,88,0.00,,,0.00,weatherlink.com 1.10,2013-02-05 12:31:00,
2013-02-05 07:47:00,16.0,13.0,30.05,ESE,110,0.0,0.0,89,0.00,,,0.00,weatherlink.com 1.10,2013-02-05 12:47:00,
2013-02-05 08:01:00,16.4,14.0,30.05,ESE,110,0.0,0.0,89,0.00,,,0.00,weatherlink.com 1.10,2013-02-05 13:01:00,
2013-02-05 08:16:00,16.9,14.0,30.05,ESE,110,0.0,0.0,88,0.00,,,0.00,weatherlink.com 1.10,2013-02-05 13:16:00,
2013-02-05 08:32:00,17.5,15.0,30.05,ESE,110,0.0,0.0,88,0.00,,,0.00,weatherlink.com 1.10,2013-02-05 13:32:00,
2013-02-05 08:46:00,18.1,15.0,30.06,ESE,110,0.0,0.0,87,0.00,,,0.00,weatherlink.com 1.10,2013-02-05 13:46:00,
2013-02-05 09:01:00,18.2,15.0,30.06,ENE,63,0.0,0.0,86,0.00,,,0.00,weatherlink.com 1.10,2013-02-05 14:01:00,
2013-02-05 09:16:00,19.0,15.0,30.06,ENE,63,0.0,0.0,85,0.00,,,0.00,weatherlink.com 1.10,2013-02-05 14:16:00,
2013-02-05 09:32:00,20.1,16.0,30.05,WSW,245,0.0,0.0,83,0.00,,,0.00,weatherlink.com 1.10,2013-02-05 14:32:00,
2013-02-05 09:46:00,20.4,15.0,30.06,WSW,249,0.0,0.0,80,0.00,,,0.00,weatherlink.com 1.10,2013-02-05 14:46:00,
2013-02-05 10:02:00,21.6,16.0,30.06,SW,221,0.0,0.0,80,0.00,,,0.00,weatherlink.com 1.10,2013-02-05 15:02:00,
2013-02-05 10:17:00,22.6,16.0,30.06,ESE,122,0.0,3.0,77,0.00,,,0.00,weatherlink.com 1.10,2013-02-05 15:17:00,
2013-02-05 10:32:00,22.4,17.0,30.06,East,83,0.0,3.0,78,0.00,,,0.00,weatherlink.com 1.10,2013-02-05 15:32:00,
2013-02-05 10:47:00,22.5,16.0,30.06,ESE,105,0.0,4.0,77,0.00,,,0.00,weatherlink.com 1.10,2013-02-05 15:47:00,
2013-02-05 11:02:00,22.5,16.0,30.05,ESE,113,1.0,3.0,76,0.00,,,0.00,weatherlink.com 1.10,2013-02-05 16:02:00,
2013-02-05 11:17:00,23.4,16.0,30.05,ENE,73,1.0,1.0,74,0.00,,,0.00,weatherlink.com 1.10,2013-02-05 16:17:00,
2013-02-05 11:32:00,23.8,17.0,30.05,West,278,1.0,3.0,74,0.00,,,0.00,weatherlink.com 1.10,2013-02-05 16:32:00,
2013-02-05 11:47:00,25.4,17.0,30.03,WSW,239,2.0,4.0,69,0.00,,,0.00,weatherlink.com 1.10,2013-02-05 16:47:00,
2013-02-05 12:02:00,25.6,17.0,30.02,SSE,162,3.0,4.0,70,0.00,,,0.00,weatherlink.com 1.10,2013-02-05 17:02:00,
2013-02-05 12:17:00,26.0,16.0,30.01,SE,132,0.0,3.0,67,0.00,,,0.00,weatherlink.com 1.10,2013-02-05 17:17:00,
2013-02-05 12:32:00,26.5,17.0,30.00,SE,141,0.0,4.0,67,0.00,,,0.00,weatherlink.com 1.10,2013-02-05 17:32:00,
2013-02-05 12:47:00,26.7,16.0,30.00,South,169,0.0,2.0,65,0.00,,,0.00,weatherlink.com 1.10,2013-02-05 17:47:00,
2013-02-05 13:02:00,26.4,16.0,30.00,SE,145,0.0,4.0,64,0.00,,,0.00,weatherlink.com 1.10,2013-02-05 18:02:00,
2013-02-05 13:17:00,27.3,17.0,30.00,SE,131,3.0,6.0,64,0.00,,,0.00,weatherlink.com 1.10,2013-02-05 18:17:00,
2013-02-05 13:32:00,28.2,17.0,29.99,East,81,1.0,5.0,62,0.00,,,0.00,weatherlink.com 1.10,2013-02-05 18:32:00,
2013-02-05 13:47:00,28.3,16.0,29.99,ESE,122,1.0,5.0,61,0.00,,,0.00,weatherlink.com 1.10,2013-02-05 18:47:00,
2013-02-05 14:02:00,28.1,16.0,29.98,SSE,160,0.0,3.0,61,0.00,,,0.00,weatherlink.com 1.10,2013-02-05 19:02:00,
2013-02-05 14:17:00,27.8,16.0,29.98,SSE,162,2.0,3.0,62,0.00,,,0.00,weatherlink.com 1.10,2013-02-05 19:17:00,
2013-02-05 14:32:00,28.2,17.0,29.97,SE,143,2.0,4.0,62,0.00,,,0.00,weatherlink.com 1.10,2013-02-05 19:32:00,
2013-02-05 14:47:00,27.5,16.0,29.97,ESE,108,0.0,4.0,61,0.00,,,0.00,weatherlink.com 1.10,2013-02-05 19:47:00,
2013-02-05 15:02:00,27.1,16.0,29.98,ESE,114,0.0,2.0,63,0.00,,,0.00,weatherlink.com 1.10,2013-02-05 20:02:00,
2013-02-05 15:17:00,27.3,17.0,29.98,SE,132,0.0,2.0,64,0.00,,,0.00,weatherlink.com 1.10,2013-02-05 20:17:00,
2013-02-05 15:32:00,26.9,16.0,29.98,South,181,0.0,5.0,64,0.00,,,0.00,weatherlink.com 1.10,2013-02-05 20:32:00,
2013-02-05 15:47:00,26.6,16.0,29.97,SSE,158,2.0,4.0,64,0.00,,,0.00,weatherlink.com 1.10,2013-02-05 20:47:00,
2013-02-05 16:02:00,26.2,15.0,29.97,ESE,107,0.0,5.0,64,0.00,,,0.00,weatherlink.com 1.10,2013-02-05 21:02:00,
2013-02-05 16:18:00,25.9,16.0,29.97,ESE,121,0.0,3.0,66,0.00,,,0.00,weatherlink.com 1.10,2013-02-05 21:18:00,
2013-02-05 16:32:00,25.5,16.0,29.97,SE,132,0.0,2.0,67,0.00,,,0.00,weatherlink.com 1.10,2013-02-05 21:32:00,
2013-02-05 16:47:00,25.3,16.0,29.96,ESE,120,0.0,2.0,67,0.00,,,0.00,weatherlink.com 1.10,2013-02-05 21:47:00,
2013-02-05 17:17:00,24.6,16.0,29.96,SE,128,0.0,3.0,69,0.00,,,0.00,weatherlink.com 1.10,2013-02-05 22:17:00,
2013-02-05 17:32:00,24.3,16.0,29.96,SE,131,0.0,1.0,70,0.00,,,0.00,weatherlink.com 1.10,2013-02-05 22:32:00,
2013-02-05 17:47:00,24.2,16.0,29.96,SE,124,1.0,1.0,70,0.00,,,0.00,weatherlink.com 1.10,2013-02-05 22:47:00,
2013-02-05 18:02:00,24.1,16.0,29.96,ESE,117,0.0,0.0,71,0.00,,,0.00,weatherlink.com 1.10,2013-02-05 23:02:00,
2013-02-05 18:18:00,24.0,16.0,29.97,ESE,117,0.0,0.0,72,0.00,,,0.00,weatherlink.com 1.10,2013-02-05 23:18:00,
2013-02-05 18:32:00,24.1,16.0,29.97,ESE,117,0.0,1.0,72,0.00,,,0.00,weatherlink.com 1.10,2013-02-05 23:32:00,
2013-02-05 18:47:00,24.1,16.0,29.98,SSE,160,0.0,0.0,72,0.00,,,0.00,weatherlink.com 1.10,2013-02-05 23:47:00,
2013-02-05 19:02:00,24.2,16.0,29.98,SSE,160,0.0,0.0,72,0.00,,,0.00,weatherlink.com 1.10,2013-02-06 00:02:00,
2013-02-05 19:17:00,24.2,17.0,29.98,SSE,160,0.0,0.0,73,0.00,,,0.00,weatherlink.com 1.10,2013-02-06 00:17:00,
2013-02-05 19:47:00,24.2,18.0,29.98,SSE,154,0.0,2.0,78,0.00,,,0.00,weatherlink.com 1.10,2013-02-06 00:47:00,
2013-02-05 20:02:00,24.2,18.0,29.98,ESE,120,0.0,0.0,78,0.00,,,0.00,weatherlink.com 1.10,2013-02-06 01:02:00,
2013-02-05 20:17:00,24.1,19.0,29.98,SE,128,0.0,1.0,79,0.00,,,0.00,weatherlink.com 1.10,2013-02-06 01:17:00,
2013-02-05 20:33:00,24.0,18.0,29.98,SE,132,0.0,0.0,79,0.00,,,0.00,weatherlink.com 1.10,2013-02-06 01:33:00,
2013-02-05 20:48:00,23.9,19.0,29.98,ESE,103,0.0,0.0,80,0.00,,,0.00,weatherlink.com 1.10,2013-02-06 01:48:00,
2013-02-05 21:02:00,23.5,19.0,29.98,ESE,103,0.0,0.0,81,0.00,,,0.00,weatherlink.com 1.10,2013-02-06 02:02:00,
2013-02-05 21:17:00,23.1,19.0,29.98,ESE,103,0.0,0.0,83,0.00,,,0.00,weatherlink.com 1.10,2013-02-06 02:17:00,
2013-02-05 21:32:00,23.1,19.0,29.98,ESE,103,0.0,0.0,84,0.00,,,0.00,weatherlink.com 1.10,2013-02-06 02:32:00,
2013-02-05 21:47:00,23.2,19.0,29.98,East,96,0.0,0.0,85,0.00,,,0.00,weatherlink.com 1.10,2013-02-06 02:47:00,
2013-02-05 22:02:00,23.3,20.0,29.99,East,96,0.0,0.0,86,0.00,,,0.00,weatherlink.com 1.10,2013-02-06 03:02:00,
2013-02-05 22:17:00,23.3,20.0,29.99,East,96,0.0,0.0,86,0.00,,,0.00,weatherlink.com 1.10,2013-02-06 03:17:00,
2013-02-05 22:32:00,23.4,20.0,29.98,East,96,0.0,0.0,87,0.00,,,0.00,weatherlink.com 1.10,2013-02-06 03:32:00,
2013-02-05 22:48:00,23.5,20.0,29.98,East,96,0.0,0.0,87,0.00,,,0.00,weatherlink.com 1.10,2013-02-06 03:48:00,
2013-02-05 23:02:00,23.4,20.0,29.98,East,96,0.0,0.0,88,0.00,,,0.00,weatherlink.com 1.10,2013-02-06 04:02:00,
2013-02-05 23:17:00,23.4,20.0,29.98,East,96,0.0,0.0,88,0.00,,,0.00,weatherlink.com 1.10,2013-02-06 04:17:00,
2013-02-05 23:33:00,23.4,21.0,29.98,East,96,0.0,0.0,89,0.00,,,0.00,weatherlink.com 1.10,2013-02-06 04:33:00,
2013-02-05 23:48:00,23.3,21.0,29.98,East,96,0.0,0.0,89,0.00,,,0.00,weatherlink.com 1.10,2013-02-06 04:48:00,